createdAt,value
2023-03-06T00:04:32.999Z,25.27
2023-03-06T00:07:02.102Z,23.33
2023-03-06T00:09:30.926Z,27.27
2023-03-06T00:11:59.833Z,22.48
2023-03-06T00:14:29.756Z,20.67
2023-03-06T00:16:58.242Z,23.63
2023-03-06T00:19:26.831Z,28.85
2023-03-06T00:21:56.721Z,29.35
2023-03-06T00:24:24.979Z,29.08
2023-03-06T00:26:53.887Z,31.42
2023-03-06T00:29:22.354Z,33.47
2023-03-06T00:31:54.275Z,35.15
2023-03-06T00:34:22.763Z,40.53
2023-03-06T00:36:53.468Z,38.53
2023-03-06T00:39:23.343Z,32.90
2023-03-06T00:41:58.849Z,25.30
2023-03-06T00:44:27.203Z,34.53
2023-03-06T00:46:58.718Z,26.95
2023-03-06T00:49:28.018Z,28.92
2023-03-06T00:51:56.796Z,27.83
2023-03-06T00:54:25.343Z,30.75
2023-03-06T00:56:54.152Z,28.55
2023-03-06T00:59:23.481Z,25.10
2023-03-06T01:01:52.353Z,26.33
2023-03-06T01:04:21.947Z,25.55
2023-03-06T01:06:50.792Z,24.17
2023-03-06T01:09:19.203Z,20.58
2023-03-06T01:11:48.028Z,18.67
2023-03-06T01:14:19.103Z,18.42
2023-03-06T01:16:48.020Z,26.52
2023-03-06T01:19:17.856Z,17.83
2023-03-06T01:21:47.763Z,20.85
2023-03-06T01:24:17.270Z,22.83
2023-03-06T01:26:46.144Z,19.52
2023-03-06T01:29:14.881Z,19.23
2023-03-06T01:31:43.632Z,21.00
2023-03-06T01:34:12.508Z,23.40
2023-03-06T01:36:41.037Z,20.63
2023-03-06T01:39:11.052Z,23.63
2023-03-06T01:41:42.956Z,22.80
2023-03-06T01:44:15.855Z,20.95
2023-03-06T01:46:44.575Z,20.33
2023-03-06T01:49:17.650Z,19.50
2023-03-06T01:54:22.745Z,22.00
2023-03-06T01:56:54.554Z,22.95
2023-03-06T01:59:23.875Z,18.17
2023-03-06T02:01:52.700Z,18.27
2023-03-06T02:04:21.980Z,16.15
2023-03-06T02:06:52.414Z,18.00
2023-03-06T02:09:22.503Z,20.35
2023-03-06T02:11:51.644Z,20.50
2023-03-06T02:14:20.258Z,15.32
2023-03-06T02:16:52.685Z,17.55
2023-03-06T02:19:34.196Z,27.73
2023-03-06T02:22:02.816Z,16.90
2023-03-06T02:24:43.088Z,19.50
2023-03-06T02:27:15.722Z,17.52
2023-03-06T02:29:46.458Z,16.15
2023-03-06T02:32:15.383Z,18.20
2023-03-06T02:34:58.787Z,19.63
2023-03-06T02:37:29.772Z,18.25
2023-03-06T02:40:09.073Z,15.70
2023-03-06T02:42:38.804Z,17.35
2023-03-06T02:45:15.950Z,14.35
2023-03-06T02:47:48.533Z,18.15
2023-03-06T02:50:17.382Z,18.55
2023-03-06T02:53:00.168Z,19.02
2023-03-06T02:55:30.586Z,16.85
2023-03-06T02:58:00.742Z,16.85
2023-03-06T03:00:32.284Z,15.77
2023-03-06T03:03:00.638Z,19.20
2023-03-06T03:05:29.226Z,15.25
2023-03-06T03:07:57.938Z,14.65
2023-03-06T03:10:27.797Z,17.40
2023-03-06T03:12:56.108Z,15.75
2023-03-06T03:15:27.985Z,17.38
2023-03-06T03:17:59.849Z,19.75
2023-03-06T03:20:28.250Z,18.70
2023-03-06T03:22:59.911Z,16.70
2023-03-06T03:25:29.494Z,16.13
2023-03-06T03:27:58.380Z,17.15
2023-03-06T03:30:32.292Z,18.17
2023-03-06T03:33:00.859Z,15.75
2023-03-06T03:35:29.861Z,17.48
2023-03-06T03:37:59.028Z,17.73
2023-03-06T03:40:30.499Z,17.30
2023-03-06T03:42:58.943Z,17.33
2023-03-06T03:45:28.838Z,17.77
2023-03-06T03:47:57.650Z,19.15
2023-03-06T03:50:28.556Z,16.75
2023-03-06T03:52:58.388Z,17.83
2023-03-06T03:55:27.097Z,15.73
2023-03-06T03:57:55.382Z,16.75
2023-03-06T04:00:23.926Z,17.73
2023-03-06T04:02:54.851Z,16.67
2023-03-06T04:05:26.145Z,17.17
2023-03-06T04:07:56.086Z,16.50
2023-03-06T04:10:25.563Z,18.38
2023-03-06T04:12:53.622Z,16.83
2023-03-06T04:15:22.089Z,16.52
2023-03-06T04:17:50.685Z,17.13
2023-03-06T04:20:20.420Z,14.90
2023-03-06T04:22:51.391Z,18.58
2023-03-06T04:25:20.134Z,16.15
2023-03-06T04:27:48.566Z,16.27
2023-03-06T04:30:25.914Z,15.95
2023-03-06T04:32:54.592Z,18.92
2023-03-06T04:35:24.349Z,18.77
2023-03-06T04:37:52.926Z,17.88
2023-03-06T04:40:24.370Z,17.63
2023-03-06T04:42:52.716Z,16.73
2023-03-06T04:45:23.570Z,20.13
2023-03-06T04:47:51.981Z,21.17
2023-03-06T04:50:23.122Z,18.98
2023-03-06T04:52:53.141Z,18.50
2023-03-06T04:55:25.784Z,18.63
2023-03-06T04:57:54.127Z,17.63
2023-03-06T05:00:25.337Z,21.38
2023-03-06T05:02:54.013Z,17.23
2023-03-06T05:05:23.467Z,18.40
2023-03-06T05:07:55.477Z,18.02
2023-03-06T05:10:26.014Z,17.25
2023-03-06T05:12:56.864Z,19.92
2023-03-06T05:15:25.632Z,18.20
2023-03-06T05:17:55.550Z,17.30
2023-03-06T05:20:24.827Z,18.65
2023-03-06T05:22:55.506Z,20.52
2023-03-06T05:25:24.396Z,20.85
2023-03-06T05:27:52.696Z,19.95
2023-03-06T05:30:24.264Z,18.42
2023-03-06T05:32:53.244Z,18.33
2023-03-06T05:35:23.888Z,15.98
2023-03-06T05:37:57.281Z,16.50
2023-03-06T05:40:31.114Z,18.67
2023-03-06T05:42:59.482Z,21.13
2023-03-06T05:45:28.266Z,20.73
2023-03-06T05:47:56.810Z,20.00
2023-03-06T05:50:26.666Z,20.50
2023-03-06T05:52:59.287Z,20.40
2023-03-06T05:55:28.604Z,21.45
2023-03-06T05:57:57.455Z,21.50
2023-03-06T06:00:26.536Z,20.75
2023-03-06T06:02:55.946Z,20.45
2023-03-06T06:05:24.586Z,22.83
2023-03-06T06:07:54.215Z,22.27
2023-03-06T06:10:26.416Z,20.00
2023-03-06T06:12:59.038Z,18.45
2023-03-06T06:15:29.170Z,18.98
2023-03-06T06:17:58.096Z,20.55
2023-03-06T06:20:27.430Z,18.33
2023-03-06T06:22:56.354Z,20.80
2023-03-06T06:25:29.372Z,22.50
2023-03-06T06:30:27.002Z,22.67
2023-03-06T06:32:59.239Z,23.02
2023-03-06T06:35:31.694Z,21.00
2023-03-06T06:38:01.152Z,18.63
2023-03-06T06:40:31.134Z,22.17
2023-03-06T06:42:59.856Z,21.73
2023-03-06T06:45:28.678Z,23.58
2023-03-06T06:47:57.545Z,20.17
2023-03-06T06:50:26.703Z,23.58
2023-03-06T06:52:55.534Z,21.25
2023-03-06T06:55:24.857Z,23.77
2023-03-06T06:57:56.230Z,18.40
2023-03-06T07:00:26.860Z,17.77
2023-03-06T07:02:55.525Z,22.65
2023-03-06T07:05:25.384Z,24.77
2023-03-06T07:07:53.915Z,21.08
2023-03-06T07:10:25.145Z,22.13
2023-03-06T07:12:56.548Z,19.17
2023-03-06T07:15:27.532Z,20.95
2023-03-06T07:17:56.514Z,20.27
2023-03-06T07:20:26.960Z,18.83
2023-03-06T07:22:57.027Z,19.67
2023-03-06T07:25:26.936Z,23.23
2023-03-06T07:27:58.116Z,27.00
2023-03-06T07:30:30.303Z,22.85
2023-03-06T07:33:00.216Z,26.45
2023-03-06T07:35:28.985Z,25.38
2023-03-06T07:37:57.593Z,26.45
2023-03-06T07:40:27.449Z,22.58
2023-03-06T07:43:16.874Z,22.30
2023-03-06T07:45:50.432Z,24.38
2023-03-06T07:48:19.864Z,22.38
2023-03-06T07:50:57.867Z,23.50
2023-03-06T07:53:26.608Z,21.55
2023-03-06T07:55:59.006Z,23.10
2023-03-06T07:58:29.221Z,23.55
2023-03-06T08:01:06.582Z,20.63
2023-03-06T08:03:35.360Z,20.60
2023-03-06T08:06:08.876Z,20.75
2023-03-06T08:08:39.114Z,19.23
2023-03-06T08:11:08.017Z,23.45
2023-03-06T08:13:39.129Z,22.90
2023-03-06T08:16:09.264Z,23.27
2023-03-06T08:18:39.961Z,25.77
2023-03-06T08:21:14.076Z,21.33
2023-03-06T08:23:44.763Z,21.38
2023-03-06T08:26:15.015Z,21.42
2023-03-06T08:28:48.500Z,23.95
2023-03-06T08:31:26.840Z,21.98
2023-03-06T08:33:55.870Z,22.33
2023-03-06T08:36:24.890Z,22.58
2023-03-06T08:38:55.739Z,20.05
2023-03-06T08:41:24.305Z,24.70
2023-03-06T08:43:55.022Z,24.92
2023-03-06T08:46:25.337Z,24.48
2023-03-06T08:48:54.422Z,24.20
2023-03-06T08:51:24.133Z,23.30
2023-03-06T08:53:53.947Z,23.27
2023-03-06T08:56:25.938Z,27.75
2023-03-06T08:58:59.813Z,27.55
2023-03-06T09:01:31.169Z,26.13
2023-03-06T09:04:00.938Z,23.23
2023-03-06T09:06:32.557Z,24.60
2023-03-06T09:09:01.853Z,24.10
2023-03-06T09:11:30.534Z,21.92
2023-03-06T09:14:01.330Z,21.70
2023-03-06T09:16:29.860Z,22.08
2023-03-06T09:18:58.910Z,27.02
2023-03-06T09:21:28.783Z,19.88
2023-03-06T09:23:57.699Z,22.33
2023-03-06T09:26:43.280Z,23.10
2023-03-06T09:29:16.700Z,22.33
2023-03-06T09:31:45.755Z,22.63
2023-03-06T09:34:15.186Z,23.73
2023-03-06T09:36:55.813Z,23.08
2023-03-06T09:39:25.538Z,22.15
2023-03-06T09:41:54.724Z,22.58
2023-03-06T09:44:27.995Z,25.50
2023-03-06T09:47:14.379Z,21.58
2023-03-06T09:49:57.780Z,24.63
2023-03-06T09:52:34.062Z,21.88
2023-03-06T09:55:13.990Z,22.85
2023-03-06T09:57:55.414Z,21.73
2023-03-06T10:00:33.852Z,22.33
2023-03-06T10:03:17.017Z,20.58
2023-03-06T10:05:54.909Z,23.20
2023-03-06T10:08:30.296Z,28.15
2023-03-06T10:11:03.944Z,24.02
2023-03-06T10:13:40.992Z,32.22
2023-03-06T10:16:23.875Z,26.33
2023-03-06T10:18:53.936Z,22.40
2023-03-06T10:21:33.750Z,23.15
2023-03-06T10:24:16.259Z,21.17
2023-03-06T10:26:51.425Z,24.67
2023-03-06T10:29:41.053Z,22.20
2023-03-06T10:32:34.260Z,24.17
2023-03-06T10:35:18.360Z,22.85
2023-03-06T10:37:47.244Z,25.17
2023-03-06T10:40:20.594Z,30.23
2023-03-06T10:42:56.070Z,23.75
2023-03-06T10:45:40.526Z,20.58
2023-03-06T10:48:26.526Z,28.67
2023-03-06T10:50:55.734Z,25.00
2023-03-06T10:53:26.464Z,21.45
2023-03-06T10:56:07.357Z,24.38
2023-03-06T10:58:36.290Z,21.42
2023-03-06T11:01:08.942Z,24.58
2023-03-06T11:03:39.434Z,22.60
2023-03-06T11:06:13.136Z,22.92
2023-03-06T11:08:44.652Z,22.20
2023-03-06T11:11:28.214Z,18.73
2023-03-06T11:14:04.048Z,20.70
2023-03-06T11:16:36.958Z,18.67
2023-03-06T11:19:20.432Z,22.23
2023-03-06T11:22:02.058Z,20.10
2023-03-06T11:24:38.226Z,23.05
2023-03-06T11:27:24.538Z,22.02
2023-03-06T11:29:56.852Z,19.35
2023-03-06T11:32:30.727Z,21.85
2023-03-06T11:35:05.315Z,24.13
2023-03-06T11:37:44.336Z,21.73
2023-03-06T11:40:21.546Z,19.52
2023-03-06T11:42:59.304Z,19.90
2023-03-06T11:45:35.190Z,23.80
2023-03-06T11:48:21.645Z,21.02
2023-03-06T11:50:57.650Z,23.45
2023-03-06T11:53:42.727Z,21.95
2023-03-06T11:56:34.215Z,20.88
2023-03-06T11:59:32.287Z,21.92
2023-03-06T12:02:06.533Z,23.33
2023-03-06T12:04:54.740Z,25.83
2023-03-06T12:07:36.459Z,19.38
2023-03-06T12:10:18.143Z,17.33
2023-03-06T12:16:14.830Z,17.67
2023-03-06T12:18:55.971Z,18.00
2023-03-06T12:21:36.776Z,17.80
2023-03-06T12:24:26.171Z,18.40
2023-03-06T12:27:09.197Z,15.40
2023-03-06T12:29:58.413Z,18.98
2023-03-06T12:32:39.730Z,24.85
2023-03-06T12:35:36.555Z,16.83
2023-03-06T12:38:34.745Z,17.67
2023-03-06T12:41:24.301Z,17.08
2023-03-06T12:44:06.934Z,18.75
2023-03-06T12:46:40.718Z,19.45
2023-03-06T12:49:17.817Z,19.80
2023-03-06T12:51:52.012Z,19.80
2023-03-06T12:54:29.837Z,17.48
2023-03-06T12:57:01.909Z,18.40
2023-03-06T12:59:44.518Z,17.50
2023-03-06T13:02:59.041Z,17.73
2023-03-06T13:06:12.214Z,19.10
2023-03-06T13:09:13.296Z,17.43
2023-03-06T13:12:26.802Z,17.52
2023-03-06T13:14:58.756Z,19.33
2023-03-06T13:17:38.488Z,18.30
2023-03-06T13:20:31.354Z,19.40
2023-03-06T13:23:17.679Z,18.80
2023-03-06T13:25:51.235Z,21.02
2023-03-06T13:28:46.684Z,22.00
2023-03-06T13:31:28.505Z,19.80
2023-03-06T13:34:00.993Z,22.95
2023-03-06T13:36:32.181Z,22.15
2023-03-06T13:39:02.273Z,24.80
2023-03-06T13:41:43.698Z,22.05
2023-03-06T13:44:49.514Z,24.13
2023-03-06T13:50:51.687Z,22.37
2023-03-06T13:53:50.378Z,20.02
2023-03-06T13:56:58.795Z,20.75
2023-03-06T14:00:09.822Z,18.17
2023-03-06T14:03:41.150Z,17.83
2023-03-06T14:06:42.858Z,17.10
2023-03-06T14:09:23.640Z,15.98
2023-03-06T14:11:55.886Z,13.57
2023-03-06T14:14:36.668Z,13.48
2023-03-06T14:17:06.607Z,12.25
2023-03-06T14:19:40.469Z,13.20
2023-03-06T14:22:18.765Z,12.70
2023-03-06T14:24:57.444Z,14.32
2023-03-06T14:27:43.844Z,16.13
2023-03-06T14:30:17.707Z,18.08
2023-03-06T14:32:46.424Z,18.15
2023-03-06T14:35:29.294Z,14.40
2023-03-06T14:38:02.804Z,18.73
2023-03-06T14:40:33.191Z,17.98
2023-03-06T14:43:22.228Z,16.65
2023-03-06T14:45:56.016Z,16.55
2023-03-06T14:48:28.206Z,17.88
2023-03-06T14:50:59.977Z,18.57
2023-03-06T14:53:31.077Z,17.17
2023-03-06T14:56:02.729Z,15.98
2023-03-06T14:58:36.720Z,17.30
2023-03-06T15:01:09.178Z,17.35
2023-03-06T15:03:45.572Z,16.23
2023-03-06T15:06:20.337Z,17.38
2023-03-06T15:08:51.829Z,16.85
2023-03-06T15:11:21.250Z,18.95
2023-03-06T15:14:02.357Z,16.38
2023-03-06T15:16:31.648Z,19.50
2023-03-06T15:19:01.979Z,16.13
2023-03-06T15:21:39.174Z,16.88
2023-03-06T15:24:33.333Z,16.13
2023-03-06T15:27:05.060Z,16.02
2023-03-06T15:29:34.039Z,15.50
2023-03-06T15:32:17.453Z,14.27
2023-03-06T15:34:45.770Z,14.68
2023-03-06T15:37:30.368Z,15.43
2023-03-06T15:40:10.294Z,19.00
2023-03-06T15:42:38.964Z,21.23
2023-03-06T15:45:16.159Z,18.77
2023-03-06T15:47:46.539Z,20.35
2023-03-06T15:50:16.879Z,18.20
2023-03-06T15:52:48.936Z,19.60
2023-03-06T15:55:18.479Z,21.17
2023-03-06T15:57:50.948Z,17.13
2023-03-06T16:00:28.001Z,18.17
2023-03-06T16:02:56.688Z,19.55
2023-03-06T16:05:25.989Z,19.02
2023-03-06T16:07:56.237Z,23.30
2023-03-06T16:10:26.673Z,20.98
2023-03-06T16:12:58.354Z,20.98
2023-03-06T16:15:29.087Z,24.88
2023-03-06T16:17:57.575Z,40.45
2023-03-06T16:20:29.993Z,32.13
2023-03-06T16:22:59.879Z,24.58
2023-03-06T16:25:29.661Z,38.20
2023-03-06T16:27:59.601Z,30.13
2023-03-06T16:30:30.032Z,52.38
2023-03-06T16:33:00.988Z,26.75
2023-03-06T16:35:29.595Z,31.27
2023-03-06T16:37:58.782Z,33.20
2023-03-06T16:40:30.404Z,54.13
2023-03-06T16:43:01.038Z,31.95
2023-03-06T16:45:31.693Z,39.55
2023-03-06T16:48:00.479Z,33.17
2023-03-06T16:50:30.087Z,23.80
2023-03-06T16:53:08.083Z,52.90
2023-03-06T16:55:38.072Z,28.63
2023-03-06T16:58:08.599Z,35.05
2023-03-06T17:00:37.002Z,34.00
2023-03-06T17:03:05.715Z,46.75
2023-03-06T17:05:36.698Z,21.73
2023-03-06T17:08:05.672Z,29.02
2023-03-06T17:10:35.246Z,22.65
2023-03-06T17:13:05.173Z,23.05
2023-03-06T17:15:33.532Z,21.40
2023-03-06T17:18:03.815Z,21.73
2023-03-06T17:20:33.127Z,23.55
2023-03-06T17:23:02.534Z,22.40
2023-03-06T17:25:30.825Z,22.83
2023-03-06T17:27:59.080Z,22.25
2023-03-06T17:30:30.924Z,21.60
2023-03-06T17:33:00.332Z,24.08
2023-03-06T17:35:28.954Z,23.73
2023-03-06T17:37:59.609Z,23.88
2023-03-06T17:40:27.926Z,22.63
2023-03-06T17:42:56.259Z,23.75
2023-03-06T17:45:24.631Z,26.98
2023-03-06T17:47:56.350Z,42.60
2023-03-06T17:50:24.985Z,39.85
2023-03-06T17:52:55.512Z,30.52
2023-03-06T17:55:26.492Z,26.23
2023-03-06T17:57:55.035Z,22.85
2023-03-06T18:00:24.648Z,25.35
2023-03-06T18:02:53.199Z,22.73
2023-03-06T18:05:22.865Z,23.77
2023-03-06T18:07:51.254Z,24.52
2023-03-06T18:10:19.899Z,24.75
2023-03-06T18:12:48.177Z,24.10
2023-03-06T18:15:17.010Z,23.40
2023-03-06T18:17:45.250Z,23.92
2023-03-06T18:20:14.216Z,23.25
2023-03-06T18:22:44.108Z,23.30
2023-03-06T18:25:12.398Z,23.48
2023-03-06T18:27:40.692Z,22.70
2023-03-06T18:30:09.894Z,22.60
2023-03-06T18:32:38.192Z,23.70
2023-03-06T18:35:09.196Z,24.20
2023-03-06T18:37:37.622Z,21.38
2023-03-06T18:40:09.939Z,21.58
2023-03-06T18:42:38.163Z,20.30
2023-03-06T18:45:07.890Z,23.83
2023-03-06T18:47:36.161Z,22.67
2023-03-06T18:50:04.570Z,21.55
2023-03-06T18:52:35.748Z,24.33
2023-03-06T18:55:04.068Z,20.60
2023-03-06T18:57:33.586Z,22.35
2023-03-06T19:00:02.006Z,20.15
2023-03-06T19:02:30.269Z,19.88
2023-03-06T19:05:09.016Z,26.23
2023-03-06T19:07:37.694Z,22.88
2023-03-06T19:10:06.773Z,21.42
2023-03-06T19:12:36.647Z,22.15
2023-03-06T19:15:05.585Z,20.15
2023-03-06T19:17:34.880Z,24.08
2023-03-06T19:20:03.386Z,21.50
2023-03-06T19:22:32.193Z,23.95
2023-03-06T19:25:03.383Z,23.30
2023-03-06T19:27:32.616Z,23.65
2023-03-06T19:30:02.298Z,24.20
2023-03-06T19:32:31.205Z,20.63
2023-03-06T19:34:59.991Z,22.55
2023-03-06T19:37:29.000Z,21.00
2023-03-06T19:40:01.175Z,23.23
2023-03-06T19:42:29.753Z,23.27
2023-03-06T19:44:58.195Z,25.00
2023-03-06T19:47:27.827Z,23.05
2023-03-06T19:49:56.368Z,24.85
2023-03-06T19:52:24.792Z,23.98
2023-03-06T19:54:55.988Z,25.75
2023-03-06T19:57:24.497Z,24.67
2023-03-06T19:59:56.938Z,23.17
2023-03-06T20:02:28.476Z,24.83
2023-03-06T20:04:57.050Z,22.08
2023-03-06T20:07:25.318Z,22.60
2023-03-06T20:09:54.392Z,23.08
2023-03-06T20:12:22.758Z,21.50
2023-03-06T20:14:53.403Z,21.73
2023-03-06T20:17:22.526Z,23.15
2023-03-06T20:19:52.776Z,24.73
2023-03-06T20:22:21.709Z,22.20
2023-03-06T20:24:50.102Z,24.52
2023-03-06T20:27:18.721Z,23.83
2023-03-06T20:29:47.440Z,23.50
2023-03-06T20:32:18.166Z,19.50
2023-03-06T20:34:46.516Z,23.30
2023-03-06T20:37:17.428Z,24.02
2023-03-06T20:39:46.725Z,22.98
2023-03-06T20:42:15.336Z,24.77
2023-03-06T20:44:46.033Z,21.52
2023-03-06T20:47:14.673Z,21.25
2023-03-06T20:49:43.691Z,31.67
2023-03-06T20:52:12.246Z,25.13
2023-03-06T20:54:42.386Z,21.70
2023-03-06T20:57:11.217Z,22.88
2023-03-06T20:59:40.347Z,23.52
2023-03-06T21:02:09.613Z,23.73
2023-03-06T21:04:41.102Z,19.85
2023-03-06T21:07:10.897Z,22.17
2023-03-06T21:09:41.814Z,24.27
2023-03-06T21:12:11.382Z,25.08
2023-03-06T21:14:39.966Z,25.35
2023-03-06T21:17:08.239Z,23.40
2023-03-06T21:19:37.945Z,25.48
2023-03-06T21:22:06.312Z,23.75
2023-03-06T21:24:34.584Z,24.77
2023-03-06T21:27:03.621Z,22.77
2023-03-06T21:29:35.271Z,23.42
2023-03-06T21:32:04.455Z,27.10
2023-03-06T21:34:35.826Z,24.20
2023-03-06T21:37:05.285Z,22.95
2023-03-06T21:39:33.494Z,27.30
2023-03-06T21:42:02.313Z,25.05
2023-03-06T21:44:30.590Z,28.95
2023-03-06T21:47:02.975Z,22.90
2023-03-06T21:49:32.002Z,22.63
2023-03-06T21:52:01.721Z,29.15
2023-03-06T21:54:30.098Z,28.35
2023-03-06T21:56:58.632Z,31.25
2023-03-06T21:59:27.420Z,26.52
2023-03-06T22:01:55.924Z,24.83
2023-03-06T22:04:25.296Z,28.85
2023-03-06T22:06:53.598Z,28.17
2023-03-06T22:09:22.207Z,29.80
2023-03-06T22:11:50.640Z,26.70
2023-03-06T22:14:18.841Z,28.65
2023-03-06T22:16:47.303Z,24.33
2023-03-06T22:19:16.206Z,28.83
2023-03-06T22:21:45.721Z,27.40
2023-03-06T22:24:16.458Z,28.80
2023-03-06T22:26:44.872Z,24.80
2023-03-06T22:29:13.381Z,29.30
2023-03-06T22:31:41.711Z,29.80
2023-03-06T22:34:11.245Z,26.92
2023-03-06T22:36:40.176Z,25.85
2023-03-06T22:39:12.525Z,26.70
2023-03-06T22:41:41.465Z,27.90
2023-03-06T22:44:09.664Z,30.13
2023-03-06T22:46:38.219Z,29.45
2023-03-06T22:49:06.437Z,28.88
2023-03-06T22:51:37.420Z,33.55
2023-03-06T22:54:06.004Z,31.95
2023-03-06T22:56:36.256Z,29.02
2023-03-06T22:59:04.576Z,40.38
2023-03-06T23:01:34.935Z,41.70
2023-03-06T23:04:11.178Z,38.92
2023-03-06T23:06:40.710Z,37.00
2023-03-06T23:09:15.314Z,37.28
2023-03-06T23:11:44.633Z,44.42
2023-03-06T23:14:15.072Z,43.50
2023-03-06T23:16:43.648Z,36.55
2023-03-06T23:19:12.296Z,32.95
2023-03-06T23:21:40.812Z,31.77
2023-03-06T23:24:09.246Z,37.72
2023-03-06T23:26:37.851Z,35.28
2023-03-06T23:29:07.450Z,36.90
2023-03-06T23:31:35.982Z,40.47
2023-03-06T23:34:06.057Z,37.90
2023-03-06T23:36:34.371Z,35.47
2023-03-06T23:39:02.717Z,29.63
2023-03-06T23:41:31.005Z,35.42
2023-03-06T23:44:00.061Z,29.85
2023-03-06T23:46:29.945Z,30.60
2023-03-06T23:48:58.427Z,32.17
2023-03-06T23:51:26.867Z,28.27
2023-03-06T23:53:57.058Z,27.98
2023-03-06T23:56:27.555Z,29.33
2023-03-06T23:58:56.123Z,32.80
